createdAt,value
2023-04-05T00:01:21.444Z,-3.17
2023-04-05T00:06:26.595Z,-3.26
2023-04-05T00:11:32.804Z,-3.24
2023-04-05T00:16:36.347Z,-3.34
2023-04-05T00:21:40.736Z,-3.37
2023-04-05T00:26:45.436Z,-3.36
2023-04-05T00:31:48.887Z,-3.40
2023-04-05T00:36:52.131Z,-3.51
2023-04-05T00:41:57.185Z,-3.50
2023-04-05T00:47:00.482Z,-3.55
2023-04-05T00:52:04.169Z,-3.65
2023-04-05T00:57:09.065Z,-3.74
2023-04-05T01:02:18.675Z,-3.65
2023-04-05T01:07:30.336Z,-3.66
2023-04-05T01:12:37.039Z,-3.79
2023-04-05T01:17:42.074Z,-3.81
2023-04-05T01:23:14.981Z,-3.95
2023-04-05T01:28:47.510Z,-4.01
2023-04-05T01:33:59.979Z,-4.00
2023-04-05T01:39:05.592Z,-4.03
2023-04-05T01:44:08.819Z,-4.14
2023-04-05T01:49:13.308Z,-4.10
2023-04-05T01:54:17.444Z,-4.10
2023-04-05T01:59:20.807Z,-4.23
2023-04-05T02:04:25.822Z,-4.20
2023-04-05T02:09:28.987Z,-4.22
2023-04-05T02:14:32.255Z,-4.26
2023-04-05T02:19:40.912Z,-4.42
2023-04-05T02:24:44.593Z,-4.29
2023-04-05T02:29:47.825Z,-4.36
2023-04-05T02:34:53.113Z,-4.39
2023-04-05T02:39:59.341Z,-4.48
2023-04-05T02:45:02.568Z,-4.46
2023-04-05T02:50:08.601Z,-4.47
2023-04-05T02:55:18.331Z,-4.48
2023-04-05T03:00:22.442Z,-4.67
2023-04-05T03:05:28.801Z,-4.55
2023-04-05T03:10:35.084Z,-4.74
2023-04-05T03:15:47.625Z,-4.59
2023-04-05T03:20:56.923Z,-4.63
2023-04-05T03:26:01.418Z,-4.69
2023-04-05T03:31:07.977Z,-4.63
2023-04-05T03:36:16.592Z,-4.70
2023-04-05T03:41:22.068Z,-4.79
2023-04-05T03:46:25.409Z,-4.83
2023-04-05T03:51:30.190Z,-4.92
2023-04-05T03:56:34.120Z,-4.81
2023-04-05T04:01:46.421Z,-4.94
2023-04-05T04:06:52.688Z,-4.93
2023-04-05T04:11:59.815Z,-5.00
2023-04-05T04:17:03.449Z,-4.94
2023-04-05T04:22:33.230Z,-5.02
2023-04-05T04:27:57.547Z,-4.99
2023-04-05T04:33:22.057Z,-5.07
2023-04-05T04:38:35.921Z,-5.04
2023-04-05T04:43:51.684Z,-5.05
2023-04-05T04:49:13.766Z,-5.07
2023-04-05T04:54:23.836Z,-5.02
2023-04-05T04:59:26.995Z,-4.97
2023-04-05T05:04:30.228Z,-5.03
2023-04-05T05:09:34.965Z,-4.90
2023-04-05T05:14:38.245Z,-4.80
2023-04-05T05:19:41.487Z,-4.75
2023-04-05T05:24:46.585Z,-4.65
2023-04-05T05:29:49.805Z,-4.55
2023-04-05T05:34:53.046Z,-4.48
2023-04-05T05:39:57.606Z,-4.47
2023-04-05T05:45:06.879Z,-4.23
2023-04-05T05:50:10.917Z,-4.14
2023-04-05T05:55:15.551Z,-3.99
2023-04-05T06:00:20.014Z,-3.82
2023-04-05T06:05:23.130Z,-3.71
2023-04-05T06:10:27.717Z,-3.61
2023-04-05T06:15:32.610Z,-3.28
2023-04-05T06:20:35.836Z,-2.67
2023-04-05T06:25:40.839Z,-2.14
2023-04-05T06:30:45.102Z,-1.47
2023-04-05T06:35:48.323Z,-0.58
2023-04-05T06:40:53.008Z,0.52
2023-04-05T06:45:57.640Z,1.34
2023-04-05T06:51:01.789Z,1.79
2023-04-05T06:56:06.845Z,2.52
2023-04-05T07:01:10.232Z,2.99
2023-04-05T07:06:13.664Z,3.80
2023-04-05T07:11:18.279Z,4.13
2023-04-05T07:16:23.757Z,4.32
2023-04-05T07:21:27.096Z,4.71
2023-04-05T07:26:35.028Z,4.51
2023-04-05T07:31:39.311Z,4.91
2023-04-05T07:36:42.555Z,5.06
2023-04-05T07:41:47.234Z,4.82
2023-04-05T07:46:50.635Z,4.65
2023-04-05T07:51:56.704Z,5.00
2023-04-05T07:57:01.553Z,5.37
2023-04-05T08:02:14.129Z,5.70
2023-04-05T08:07:18.899Z,5.43
2023-04-05T08:12:23.805Z,5.39
2023-04-05T08:17:28.422Z,4.69
2023-04-05T08:22:32.106Z,4.85
2023-04-05T08:27:36.934Z,4.76
2023-04-05T08:32:41.151Z,5.21
2023-04-05T08:37:44.727Z,5.33
2023-04-05T08:42:55.740Z,4.63
2023-04-05T08:47:59.917Z,4.09
2023-04-05T08:53:03.602Z,4.91
2023-04-05T08:58:14.583Z,4.79
2023-04-05T09:03:22.476Z,6.04
2023-04-05T09:08:29.069Z,7.00
2023-04-05T09:13:34.685Z,6.47
2023-04-05T09:18:38.040Z,5.59
2023-04-05T09:23:53.157Z,5.97
2023-04-05T09:28:57.840Z,5.86
2023-04-05T09:34:03.693Z,5.47
2023-04-05T09:39:08.332Z,4.53
2023-04-05T09:44:13.514Z,6.18
2023-04-05T09:49:33.941Z,7.74
2023-04-05T09:54:43.522Z,7.81
2023-04-05T09:59:49.713Z,6.93
2023-04-05T10:04:53.369Z,7.39
2023-04-05T10:09:58.121Z,7.52
2023-04-05T10:15:04.309Z,6.49
2023-04-05T10:20:15.593Z,6.88
2023-04-05T10:25:27.436Z,8.16
2023-04-05T10:30:36.960Z,7.58
2023-04-05T10:35:51.369Z,8.05
2023-04-05T10:40:58.583Z,8.64
2023-04-05T10:46:05.320Z,8.49
2023-04-05T10:51:08.793Z,8.97
2023-04-05T10:56:13.403Z,7.85
2023-04-05T11:01:19.798Z,7.35
2023-04-05T11:06:25.434Z,7.91
2023-04-05T11:11:28.986Z,7.42
2023-04-05T11:16:41.711Z,6.57
2023-04-05T11:21:45.648Z,7.64
2023-04-05T11:26:56.627Z,7.11
2023-04-05T11:32:07.237Z,7.84
2023-04-05T11:37:10.613Z,7.63
2023-04-05T11:42:13.883Z,8.06
2023-04-05T11:47:21.913Z,7.29
2023-04-05T11:52:25.790Z,7.20
2023-04-05T11:57:29.437Z,7.79
2023-04-05T12:02:37.242Z,8.07
2023-04-05T12:07:40.908Z,8.28
2023-04-05T12:12:47.733Z,8.35
2023-04-05T12:17:54.748Z,8.88
2023-04-05T12:22:58.520Z,9.70
2023-04-05T12:28:09.080Z,9.00
2023-04-05T12:33:13.696Z,8.14
2023-04-05T12:38:17.713Z,7.65
2023-04-05T12:43:20.920Z,8.98
2023-04-05T12:48:27.008Z,8.83
2023-04-05T12:53:30.385Z,8.68
2023-04-05T12:58:35.859Z,8.57
2023-04-05T13:03:40.800Z,8.89
2023-04-05T13:08:43.969Z,7.74
2023-04-05T13:13:47.111Z,7.76
2023-04-05T13:18:51.623Z,8.52
2023-04-05T13:23:54.776Z,8.82
2023-04-05T13:28:57.961Z,7.97
2023-04-05T13:34:02.414Z,7.63
2023-04-05T13:39:05.852Z,7.82
2023-04-05T13:44:09.268Z,8.71
2023-04-05T13:49:13.886Z,8.78
2023-04-05T13:54:17.959Z,9.12
2023-04-05T13:59:21.534Z,8.77
2023-04-05T14:04:26.540Z,8.83
2023-04-05T14:09:30.505Z,7.99
2023-04-05T14:14:33.877Z,8.02
2023-04-05T14:19:38.779Z,7.55
2023-04-05T14:24:42.132Z,7.99
2023-04-05T14:29:46.755Z,7.82
2023-04-05T14:34:51.531Z,7.39
2023-04-05T14:39:54.862Z,7.74
2023-04-05T14:44:58.087Z,7.86
2023-04-05T14:50:03.248Z,7.55
2023-04-05T14:55:07.415Z,7.12
2023-04-05T15:00:12.494Z,7.47
2023-04-05T15:05:17.427Z,7.51
2023-04-05T15:10:20.793Z,7.91
2023-04-05T15:15:24.169Z,7.47
2023-04-05T15:20:28.890Z,7.29
2023-04-05T15:25:32.359Z,6.75
2023-04-05T15:30:37.750Z,7.02
2023-04-05T15:35:42.549Z,7.08
2023-04-05T15:40:49.591Z,6.98
2023-04-05T15:45:53.066Z,7.14
2023-04-05T15:50:57.808Z,7.21
2023-04-05T15:56:01.203Z,6.86
2023-04-05T16:01:04.574Z,6.89
2023-04-05T16:06:10.835Z,6.57
2023-04-05T16:11:14.427Z,6.88
2023-04-05T16:16:29.824Z,6.97
2023-04-05T16:21:45.451Z,6.82
2023-04-05T16:26:48.778Z,6.75
2023-04-05T16:31:52.433Z,6.55
2023-04-05T16:36:57.877Z,6.53
2023-04-05T16:42:01.415Z,6.29
2023-04-05T16:47:04.806Z,6.14
2023-04-05T16:52:10.511Z,6.04
2023-04-05T16:57:14.473Z,6.07
2023-04-05T17:02:18.090Z,6.11
2023-04-05T17:07:22.800Z,6.29
2023-04-05T17:12:26.098Z,5.99
2023-04-05T17:17:30.749Z,5.81
2023-04-05T17:22:37.582Z,5.55
2023-04-05T17:27:41.369Z,5.57
2023-04-05T17:32:46.291Z,5.42
2023-04-05T17:37:52.824Z,5.30
2023-04-05T17:42:56.011Z,4.82
2023-04-05T17:47:59.436Z,4.85
2023-04-05T17:53:04.383Z,4.71
2023-04-05T17:58:07.698Z,4.92
2023-04-05T18:03:13.198Z,4.68
2023-04-05T18:08:18.156Z,4.73
2023-04-05T18:13:21.429Z,4.52
2023-04-05T18:18:25.066Z,4.22
2023-04-05T18:23:29.976Z,4.03
2023-04-05T18:28:34.392Z,3.90
2023-04-05T18:33:39.398Z,3.91
2023-04-05T18:38:44.080Z,3.67
2023-04-05T18:43:53.421Z,3.67
2023-04-05T18:48:57.767Z,3.56
2023-04-05T18:54:02.974Z,3.18
2023-04-05T18:59:06.783Z,3.22
2023-04-05T19:04:10.544Z,3.11
2023-04-05T19:09:16.761Z,2.90
2023-04-05T19:14:20.946Z,2.86
2023-04-05T19:19:24.417Z,2.49
2023-04-05T19:24:30.355Z,2.46
2023-04-05T19:29:35.599Z,2.44
2023-04-05T19:34:40.177Z,2.46
2023-04-05T19:39:45.761Z,2.43
2023-04-05T19:44:52.205Z,2.25
2023-04-05T19:49:57.810Z,2.16
2023-04-05T19:55:03.531Z,1.70
2023-04-05T20:00:29.443Z,1.58
2023-04-05T20:05:58.117Z,1.62
2023-04-05T20:11:11.148Z,1.59
2023-04-05T20:16:15.975Z,1.32
2023-04-05T20:21:20.027Z,1.19
2023-04-05T20:26:29.062Z,0.97
2023-04-05T20:31:35.207Z,0.69
2023-04-05T20:36:44.499Z,0.76
2023-04-05T20:41:49.223Z,0.59
2023-04-05T20:46:54.027Z,0.43
2023-04-05T20:51:57.706Z,0.21
2023-04-05T20:57:02.561Z,0.23
2023-04-05T21:02:05.878Z,0.12
2023-04-05T21:07:08.989Z,-0.03
2023-04-05T21:12:13.935Z,-0.10
2023-04-05T21:17:17.155Z,-0.26
2023-04-05T21:22:21.377Z,-0.42
2023-04-05T21:27:27.339Z,-0.48
2023-04-05T21:32:30.883Z,-0.56
2023-04-05T21:37:34.174Z,-0.66
2023-04-05T21:42:38.851Z,-0.67
2023-04-05T21:47:42.538Z,-0.81
2023-04-05T21:52:46.512Z,-0.79
2023-04-05T21:57:51.465Z,-0.79
2023-04-05T22:02:54.943Z,-0.87
2023-04-05T22:07:58.815Z,-0.95
2023-04-05T22:13:03.795Z,-1.02
2023-04-05T22:18:07.244Z,-1.21
2023-04-05T22:23:10.629Z,-1.25
2023-04-05T22:28:15.781Z,-1.32
2023-04-05T22:33:19.041Z,-1.36
2023-04-05T22:38:22.199Z,-1.51
2023-04-05T22:43:27.890Z,-1.60
2023-04-05T22:48:31.381Z,-1.58
2023-04-05T22:53:34.568Z,-1.62
2023-04-05T22:58:39.241Z,-1.72
2023-04-05T23:03:42.759Z,-1.76
2023-04-05T23:08:46.226Z,-1.85
2023-04-05T23:13:52.049Z,-1.88
2023-04-05T23:18:55.192Z,-1.93
2023-04-05T23:23:58.441Z,-1.99
2023-04-05T23:29:03.517Z,-1.96
2023-04-05T23:34:06.717Z,-1.94
2023-04-05T23:39:10.058Z,-1.94
2023-04-05T23:44:14.769Z,-1.95
2023-04-05T23:49:18.084Z,-2.14
2023-04-05T23:54:21.456Z,-2.23
2023-04-05T23:59:26.301Z,-2.29
